createdAt,value
2017-09-25T00:01:38.875Z,90.00
2017-09-25T00:04:07.271Z,89.80
2017-09-25T00:06:36.306Z,89.30
2017-09-25T00:09:04.796Z,89.40
2017-09-25T00:11:33.234Z,89.20
2017-09-25T00:14:02.382Z,88.50
2017-09-25T00:16:30.863Z,88.50
2017-09-25T00:18:59.236Z,88.70
2017-09-25T00:21:27.618Z,89.00
2017-09-25T00:23:56.041Z,88.30
2017-09-25T00:26:25.433Z,89.20
2017-09-25T00:28:54.579Z,89.10
2017-09-25T00:31:23.075Z,89.80
2017-09-25T00:33:51.459Z,88.70
2017-09-25T00:36:19.871Z,88.40
2017-09-25T00:38:49.067Z,88.40
2017-09-25T00:41:17.473Z,88.40
2017-09-25T00:43:45.922Z,89.30
2017-09-25T00:46:15.287Z,89.10
2017-09-25T00:48:43.979Z,89.00
2017-09-25T00:51:12.920Z,88.10
2017-09-25T00:54:01.311Z,90.20
2017-09-25T00:56:29.866Z,90.30
2017-09-25T00:58:58.287Z,90.90
2017-09-25T01:01:44.662Z,90.50
2017-09-25T01:07:21.864Z,90.00
2017-09-25T01:09:50.361Z,90.30
2017-09-25T01:12:18.992Z,90.20
2017-09-25T01:14:48.258Z,90.00
2017-09-25T01:17:16.717Z,90.00
2017-09-25T01:19:45.157Z,90.20
2017-09-25T01:22:13.599Z,89.90
2017-09-25T01:24:42.020Z,89.60
2017-09-25T01:27:11.168Z,89.60
2017-09-25T01:29:39.747Z,89.60
2017-09-25T01:32:09.050Z,88.80
2017-09-25T01:34:37.621Z,89.10
2017-09-25T01:37:06.122Z,89.30
2017-09-25T01:39:34.585Z,88.80
2017-09-25T01:42:02.986Z,89.10
2017-09-25T01:44:31.467Z,89.80
2017-09-25T01:46:59.933Z,89.00
2017-09-25T01:49:28.352Z,88.90
2017-09-25T01:51:57.551Z,88.30
2017-09-25T01:54:26.092Z,88.10
2017-09-25T01:56:54.526Z,88.30
2017-09-25T01:59:23.211Z,89.10
2017-09-25T02:01:51.602Z,89.10
2017-09-25T02:04:20.618Z,89.10
2017-09-25T02:06:49.314Z,88.80
2017-09-25T02:09:17.707Z,88.80
2017-09-25T02:11:46.119Z,90.20
2017-09-25T02:14:14.726Z,89.60
2017-09-25T02:16:43.099Z,90.00
2017-09-25T02:19:11.479Z,89.80
2017-09-25T02:21:40.093Z,89.70
2017-09-25T02:24:08.876Z,89.70
2017-09-25T02:26:37.318Z,89.60
2017-09-25T02:29:05.814Z,89.10
2017-09-25T02:31:34.254Z,90.00
2017-09-25T02:34:03.074Z,90.30
2017-09-25T02:36:32.109Z,89.80
2017-09-25T02:39:00.504Z,89.40
2017-09-25T02:41:28.895Z,90.00
2017-09-25T02:43:57.590Z,90.40
2017-09-25T02:46:26.831Z,90.60
2017-09-25T02:48:55.210Z,90.50
2017-09-25T02:51:23.678Z,90.50
2017-09-25T02:53:52.146Z,90.30
2017-09-25T02:56:20.728Z,90.50
2017-09-25T02:58:49.396Z,90.50
2017-09-25T03:01:19.169Z,90.60
2017-09-25T03:03:49.211Z,90.50
2017-09-25T03:06:18.594Z,90.50
2017-09-25T03:08:47.616Z,90.50
2017-09-25T03:11:18.519Z,90.00
2017-09-25T03:13:47.804Z,90.00
2017-09-25T03:16:17.332Z,90.00
2017-09-25T03:18:46.551Z,90.10
2017-09-25T03:21:17.455Z,90.40
2017-09-25T03:23:46.991Z,90.30
2017-09-25T03:26:16.404Z,89.80
2017-09-25T03:28:44.938Z,90.10
2017-09-25T03:31:13.632Z,90.10
2017-09-25T03:33:42.060Z,90.20
2017-09-25T03:36:11.536Z,90.30
2017-09-25T03:38:40.202Z,90.30
2017-09-25T03:41:08.641Z,90.20
2017-09-25T03:43:37.885Z,90.30
2017-09-25T03:46:06.670Z,90.70
2017-09-25T03:48:35.253Z,90.70
2017-09-25T03:51:03.974Z,90.70
2017-09-25T03:53:32.398Z,90.60
2017-09-25T03:56:00.891Z,90.60
2017-09-25T03:58:29.466Z,90.60
2017-09-25T04:00:58.066Z,90.40
2017-09-25T04:03:26.519Z,90.20
2017-09-25T04:05:55.350Z,90.10
2017-09-25T04:08:25.428Z,89.90
2017-09-25T04:10:53.921Z,89.90
2017-09-25T04:13:22.517Z,89.80
2017-09-25T04:15:51.143Z,89.60
2017-09-25T04:18:20.347Z,90.10
2017-09-25T04:20:49.026Z,90.10
2017-09-25T04:23:18.487Z,90.30
2017-09-25T04:25:47.112Z,90.30
2017-09-25T04:28:16.580Z,91.90
2017-09-25T04:30:45.193Z,91.90
2017-09-25T04:33:14.932Z,92.50
2017-09-25T04:35:43.555Z,92.50
2017-09-25T04:38:12.244Z,92.10
2017-09-25T04:40:40.824Z,92.00
2017-09-25T04:43:09.455Z,92.20
2017-09-25T04:45:37.907Z,91.80
2017-09-25T04:48:06.349Z,91.50
2017-09-25T04:50:34.981Z,91.40
2017-09-25T04:53:04.207Z,90.90
2017-09-25T04:55:32.646Z,90.90
2017-09-25T04:58:02.983Z,90.60
2017-09-25T05:00:32.251Z,90.80
2017-09-25T05:03:02.416Z,92.30
2017-09-25T05:05:30.910Z,92.20
2017-09-25T05:07:59.396Z,91.80
2017-09-25T05:10:27.965Z,91.50
2017-09-25T05:12:56.636Z,90.70
2017-09-25T05:15:26.097Z,89.40
2017-09-25T05:17:54.677Z,89.40
2017-09-25T05:20:23.482Z,88.10
2017-09-25T05:22:51.937Z,88.90
2017-09-25T05:25:20.374Z,89.30
2017-09-25T05:27:49.609Z,89.30
2017-09-25T05:30:18.325Z,89.30
2017-09-25T05:32:46.909Z,89.90
2017-09-25T05:35:16.166Z,90.10
2017-09-25T05:37:44.672Z,90.00
2017-09-25T05:40:13.373Z,90.00
2017-09-25T05:42:42.067Z,89.90
2017-09-25T05:45:10.530Z,90.00
2017-09-25T05:47:38.999Z,89.50
2017-09-25T05:50:07.463Z,89.20
2017-09-25T05:52:35.883Z,88.60
2017-09-25T05:55:04.311Z,87.80
2017-09-25T05:57:32.830Z,86.50
2017-09-25T06:00:01.398Z,84.10
2017-09-25T06:02:30.212Z,82.90
2017-09-25T06:04:58.693Z,80.10
2017-09-25T06:07:27.377Z,77.30
2017-09-25T06:09:56.099Z,75.40
2017-09-25T06:12:25.361Z,73.30
2017-09-25T06:14:53.936Z,73.30
2017-09-25T06:17:23.334Z,72.80
2017-09-25T06:19:52.192Z,71.30
2017-09-25T06:22:20.841Z,70.40
2017-09-25T06:24:50.126Z,67.90
2017-09-25T06:27:20.490Z,67.90
2017-09-25T06:29:49.032Z,68.00
2017-09-25T06:32:18.430Z,64.20
2017-09-25T06:34:47.069Z,64.00
2017-09-25T06:37:23.267Z,62.00
2017-09-25T06:39:51.763Z,60.50
2017-09-25T06:42:20.209Z,59.10
2017-09-25T06:44:48.649Z,58.60
2017-09-25T06:47:18.117Z,57.30
2017-09-25T06:49:46.748Z,57.30
2017-09-25T06:52:15.377Z,57.10
2017-09-25T06:54:44.082Z,57.00
2017-09-25T06:57:12.656Z,56.00
2017-09-25T06:59:41.135Z,56.30
2017-09-25T07:02:09.622Z,55.80
2017-09-25T07:04:38.249Z,55.20
2017-09-25T07:07:06.687Z,54.60
2017-09-25T07:09:35.256Z,53.40
2017-09-25T07:12:03.674Z,53.40
2017-09-25T07:14:32.930Z,52.50
2017-09-25T07:17:01.413Z,52.40
2017-09-25T07:19:29.842Z,51.10
2017-09-25T07:21:59.038Z,50.00
2017-09-25T07:24:28.504Z,49.20
2017-09-25T07:26:56.934Z,49.10
2017-09-25T07:29:25.373Z,48.30
2017-09-25T07:31:53.819Z,47.20
2017-09-25T07:34:22.281Z,47.20
2017-09-25T07:36:50.766Z,46.60
2017-09-25T07:39:19.243Z,46.60
2017-09-25T07:41:47.970Z,46.10
2017-09-25T07:44:16.605Z,46.50
2017-09-25T07:46:45.090Z,46.20
2017-09-25T07:49:13.475Z,45.70
2017-09-25T07:51:42.098Z,45.20
2017-09-25T07:54:11.082Z,45.40
2017-09-25T07:56:39.516Z,45.20
2017-09-25T07:59:08.718Z,44.30
2017-09-25T08:01:37.938Z,43.90
2017-09-25T08:04:06.344Z,43.90
2017-09-25T08:06:34.931Z,44.00
2017-09-25T08:09:04.311Z,43.60
2017-09-25T08:11:32.747Z,43.60
2017-09-25T08:14:02.103Z,43.30
2017-09-25T08:16:30.867Z,43.20
2017-09-25T08:18:59.303Z,43.20
2017-09-25T08:21:27.723Z,42.90
2017-09-25T08:23:56.151Z,42.30
2017-09-25T08:26:24.569Z,41.60
2017-09-25T08:28:52.965Z,41.50
2017-09-25T08:31:22.117Z,41.50
2017-09-25T08:33:50.773Z,40.40
2017-09-25T08:36:19.230Z,40.10
2017-09-25T08:38:47.718Z,40.40
2017-09-25T08:41:16.324Z,40.10
2017-09-25T08:43:45.263Z,40.10
2017-09-25T08:46:13.700Z,39.90
2017-09-25T08:48:42.086Z,39.50
2017-09-25T08:51:11.274Z,38.60
2017-09-25T08:53:40.343Z,38.70
2017-09-25T08:56:08.943Z,40.40
2017-09-25T08:58:37.383Z,39.30
2017-09-25T09:01:05.823Z,39.10
2017-09-25T09:03:35.009Z,37.60
2017-09-25T09:06:03.472Z,37.70
2017-09-25T09:08:50.271Z,37.40
2017-09-25T09:11:19.366Z,36.80
2017-09-25T09:13:47.809Z,36.40
2017-09-25T09:16:17.222Z,37.90
2017-09-25T09:18:46.396Z,38.10
2017-09-25T09:21:14.808Z,38.00
2017-09-25T09:23:43.530Z,38.80
2017-09-25T09:26:11.935Z,37.50
2017-09-25T09:28:40.378Z,37.30
2017-09-25T09:31:08.942Z,38.00
2017-09-25T09:33:37.374Z,37.10
2017-09-25T09:36:06.610Z,37.20
2017-09-25T09:38:35.132Z,37.30
2017-09-25T09:41:03.570Z,38.70
2017-09-25T09:43:32.004Z,40.00
2017-09-25T09:46:00.919Z,41.50
2017-09-25T09:48:29.363Z,41.90
2017-09-25T09:50:57.802Z,41.80
2017-09-25T09:53:26.283Z,40.60
2017-09-25T09:55:54.726Z,40.80
2017-09-25T09:58:23.344Z,40.00
2017-09-25T10:00:51.881Z,39.10
2017-09-25T10:03:20.315Z,38.90
2017-09-25T10:05:49.050Z,39.60
2017-09-25T10:08:17.823Z,40.20
2017-09-25T10:10:46.208Z,40.00
2017-09-25T10:13:14.635Z,38.90
2017-09-25T10:15:43.154Z,37.90
2017-09-25T10:18:11.540Z,37.10
2017-09-25T10:20:40.222Z,35.50
2017-09-25T10:23:08.912Z,36.30
2017-09-25T10:25:38.229Z,36.30
2017-09-25T10:28:06.691Z,36.10
2017-09-25T10:30:35.260Z,35.60
2017-09-25T10:33:03.961Z,34.90
2017-09-25T10:35:32.410Z,34.70
2017-09-25T10:38:01.047Z,35.00
2017-09-25T10:40:29.692Z,35.00
2017-09-25T10:42:58.108Z,33.20
2017-09-25T10:45:26.539Z,33.10
2017-09-25T10:47:55.754Z,33.20
2017-09-25T10:50:24.186Z,35.50
2017-09-25T10:52:54.237Z,34.80
2017-09-25T10:55:22.689Z,34.80
2017-09-25T10:57:52.148Z,33.70
2017-09-25T11:00:20.626Z,33.60
2017-09-25T11:02:49.063Z,33.70
2017-09-25T11:05:17.641Z,32.50
2017-09-25T11:07:46.159Z,33.30
2017-09-25T11:10:14.604Z,33.90
2017-09-25T11:12:44.510Z,34.40
2017-09-25T11:15:13.871Z,34.50
2017-09-25T11:17:42.505Z,34.50
2017-09-25T11:20:10.936Z,34.70
2017-09-25T11:22:39.482Z,34.80
2017-09-25T11:25:07.941Z,35.50
2017-09-25T11:27:37.770Z,35.60
2017-09-25T11:30:06.327Z,35.60
2017-09-25T11:32:35.497Z,37.40
2017-09-25T11:35:04.128Z,37.40
2017-09-25T11:37:32.746Z,37.50
2017-09-25T11:40:01.140Z,36.70
2017-09-25T11:42:29.524Z,38.40
2017-09-25T11:44:57.988Z,38.40
2017-09-25T11:47:26.417Z,38.10
2017-09-25T11:49:55.570Z,40.20
2017-09-25T11:52:23.999Z,40.10
2017-09-25T11:54:53.148Z,38.70
2017-09-25T11:57:21.717Z,38.60
2017-09-25T11:59:50.136Z,37.20
2017-09-25T12:02:18.741Z,38.10
2017-09-25T12:04:47.166Z,38.90
2017-09-25T12:07:15.669Z,37.30
2017-09-25T12:09:44.903Z,38.10
2017-09-25T12:12:13.409Z,38.10
2017-09-25T12:14:42.325Z,38.30
2017-09-25T12:17:10.715Z,38.20
2017-09-25T12:19:39.099Z,38.10
2017-09-25T12:22:07.532Z,37.90
2017-09-25T12:24:36.201Z,38.40
2017-09-25T12:27:04.927Z,37.40
2017-09-25T12:29:33.410Z,37.00
2017-09-25T12:32:02.049Z,35.80
2017-09-25T12:34:30.716Z,36.90
2017-09-25T12:37:00.130Z,37.70
2017-09-25T12:39:29.279Z,37.50
2017-09-25T12:41:57.705Z,37.50
2017-09-25T12:44:26.912Z,37.90
2017-09-25T12:46:56.054Z,39.40
2017-09-25T12:49:24.437Z,39.40
2017-09-25T12:51:52.851Z,38.60
2017-09-25T12:54:22.011Z,38.30
2017-09-25T12:56:50.403Z,38.30
2017-09-25T12:59:20.372Z,38.30
2017-09-25T13:01:48.754Z,38.30
2017-09-25T13:04:17.139Z,39.70
2017-09-25T13:06:45.568Z,39.80
2017-09-25T13:09:13.943Z,40.00
2017-09-25T13:11:43.842Z,42.10
2017-09-25T13:14:12.256Z,42.10
2017-09-25T13:16:41.403Z,42.30
2017-09-25T13:19:09.797Z,42.30
2017-09-25T13:21:38.365Z,41.20
2017-09-25T13:24:06.744Z,41.10
2017-09-25T13:26:35.139Z,41.10
2017-09-25T13:29:03.548Z,42.00
2017-09-25T13:31:32.695Z,41.00
2017-09-25T13:34:01.091Z,40.90
2017-09-25T13:36:29.507Z,40.30
2017-09-25T13:38:58.662Z,42.10
2017-09-25T13:41:27.059Z,42.00
2017-09-25T13:43:55.500Z,42.00
2017-09-25T13:46:23.878Z,42.10
2017-09-25T13:48:52.259Z,42.70
2017-09-25T13:51:20.675Z,42.90
2017-09-25T13:53:49.240Z,43.00
2017-09-25T13:56:17.642Z,44.30
2017-09-25T14:03:53.963Z,44.00
2017-09-25T14:06:22.588Z,45.30
2017-09-25T14:08:51.272Z,45.60
2017-09-25T14:11:19.958Z,46.20
2017-09-25T14:13:48.587Z,46.60
2017-09-25T14:16:17.117Z,45.30
2017-09-25T14:18:45.809Z,45.20
2017-09-25T14:21:14.440Z,46.40
2017-09-25T14:23:42.973Z,46.10
2017-09-25T14:26:11.723Z,45.60
2017-09-25T14:28:40.552Z,47.20
2017-09-25T14:31:09.237Z,49.00
2017-09-25T14:33:38.024Z,49.80
2017-09-25T14:36:06.647Z,49.00
2017-09-25T14:38:36.017Z,48.20
2017-09-25T14:41:04.677Z,48.10
2017-09-25T14:43:33.274Z,48.10
2017-09-25T14:46:01.969Z,48.80
2017-09-25T14:48:32.329Z,47.90
2017-09-25T14:51:01.747Z,48.20
2017-09-25T14:53:30.258Z,48.20
2017-09-25T14:55:59.304Z,48.60
2017-09-25T14:58:27.901Z,48.50
2017-09-25T15:00:56.540Z,49.10
2017-09-25T15:03:25.224Z,48.90
2017-09-25T15:05:53.805Z,48.70
2017-09-25T15:08:22.445Z,47.80
2017-09-25T15:10:51.111Z,48.40
2017-09-25T15:13:20.527Z,49.30
2017-09-25T15:15:49.159Z,49.20
2017-09-25T15:18:17.952Z,49.00
2017-09-25T15:20:46.637Z,49.20
2017-09-25T15:23:15.271Z,49.20
2017-09-25T15:25:43.901Z,48.70
2017-09-25T15:28:12.483Z,48.90
2017-09-25T15:30:41.798Z,48.90
2017-09-25T15:33:10.569Z,49.70
2017-09-25T15:35:39.260Z,49.90
2017-09-25T15:38:08.007Z,49.30
2017-09-25T15:40:36.629Z,49.20
2017-09-25T15:43:05.417Z,49.80
2017-09-25T15:45:34.053Z,51.00
2017-09-25T15:48:02.681Z,50.50
2017-09-25T15:50:31.312Z,51.10
2017-09-25T15:52:59.955Z,51.40
2017-09-25T15:55:28.640Z,52.00
2017-09-25T15:57:57.369Z,51.60
2017-09-25T16:00:26.841Z,52.50
2017-09-25T16:02:55.552Z,52.50
2017-09-25T16:05:25.020Z,53.30
2017-09-25T16:07:53.705Z,53.20
2017-09-25T16:10:22.382Z,53.20
2017-09-25T16:12:51.187Z,54.10
2017-09-25T16:15:20.018Z,54.00
2017-09-25T16:17:48.754Z,53.90
2017-09-25T16:20:17.441Z,54.50
2017-09-25T16:22:46.015Z,54.70
2017-09-25T16:25:14.604Z,55.60
2017-09-25T16:27:44.009Z,55.10
2017-09-25T16:30:12.688Z,55.50
2017-09-25T16:32:42.055Z,55.80
2017-09-25T16:35:10.675Z,56.30
2017-09-25T16:37:39.276Z,56.50
2017-09-25T16:40:08.052Z,56.80
2017-09-25T16:42:36.728Z,57.00
2017-09-25T16:45:05.427Z,58.10
2017-09-25T16:47:34.024Z,58.10
2017-09-25T16:50:02.690Z,58.50
2017-09-25T16:52:31.411Z,58.90
2017-09-25T16:55:00.770Z,60.10
2017-09-25T16:57:29.454Z,60.10
2017-09-25T16:59:58.253Z,61.00
2017-09-25T17:02:26.970Z,61.70
2017-09-25T17:04:56.380Z,63.50
2017-09-25T17:07:26.058Z,63.70
2017-09-25T17:09:54.652Z,63.70
2017-09-25T17:12:23.257Z,64.80
2017-09-25T17:14:52.625Z,65.70
2017-09-25T17:17:21.504Z,65.80
2017-09-25T17:19:50.135Z,66.30
2017-09-25T17:22:18.768Z,66.70
2017-09-25T17:24:47.666Z,67.60
2017-09-25T17:27:16.262Z,68.00
2017-09-25T17:29:44.940Z,68.70
2017-09-25T17:32:13.576Z,68.90
2017-09-25T17:34:42.588Z,69.40
2017-09-25T17:37:11.298Z,69.90
2017-09-25T17:39:40.171Z,70.80
2017-09-25T17:42:08.821Z,71.50
2017-09-25T17:44:37.405Z,71.50
2017-09-25T17:47:06.143Z,73.10
2017-09-25T17:49:34.660Z,72.80
2017-09-25T17:52:04.194Z,73.80
2017-09-25T17:54:33.143Z,73.80
2017-09-25T17:57:03.285Z,75.40
2017-09-25T17:59:32.716Z,75.60
2017-09-25T18:02:01.638Z,75.60
2017-09-25T18:04:30.294Z,75.20
2017-09-25T18:06:58.959Z,75.80
2017-09-25T18:09:27.702Z,76.00
2017-09-25T18:11:56.398Z,76.30
2017-09-25T18:14:24.881Z,76.70
2017-09-25T18:16:53.549Z,76.50
2017-09-25T18:19:22.417Z,77.60
2017-09-25T18:21:51.640Z,78.00
2017-09-25T18:24:20.347Z,78.50
2017-09-25T18:26:49.873Z,78.60
2017-09-25T18:29:18.611Z,78.50
2017-09-25T18:31:55.418Z,78.70
2017-09-25T18:34:24.723Z,78.90
2017-09-25T18:36:55.231Z,79.70
2017-09-25T18:39:23.831Z,79.50
2017-09-25T18:41:53.196Z,80.80
2017-09-25T18:44:21.886Z,80.80
2017-09-25T18:46:50.576Z,81.10
2017-09-25T18:49:19.581Z,81.00
2017-09-25T18:51:49.384Z,81.50
2017-09-25T18:54:18.163Z,81.40
2017-09-25T18:56:46.849Z,81.30
2017-09-25T18:59:16.662Z,81.60
2017-09-25T19:01:45.570Z,81.60
2017-09-25T19:04:14.200Z,81.70
2017-09-25T19:06:42.946Z,81.00
2017-09-25T19:09:11.978Z,81.40
2017-09-25T19:11:41.112Z,81.60
2017-09-25T19:14:11.025Z,82.00
2017-09-25T19:16:39.727Z,82.00
2017-09-25T19:19:09.320Z,83.10
2017-09-25T19:21:38.317Z,82.50
2017-09-25T19:24:08.030Z,82.50
2017-09-25T19:26:36.760Z,82.50
2017-09-25T19:29:05.678Z,83.20
2017-09-25T19:31:34.699Z,83.20
2017-09-25T19:34:03.504Z,82.80
2017-09-25T19:36:33.514Z,83.80
2017-09-25T19:39:03.007Z,83.80
2017-09-25T19:41:31.683Z,83.70
2017-09-25T19:44:01.198Z,83.80
2017-09-25T19:46:30.700Z,83.80
2017-09-25T19:48:59.936Z,83.80
2017-09-25T19:51:28.673Z,84.10
2017-09-25T19:54:03.645Z,84.30
2017-09-25T19:56:43.259Z,83.50
2017-09-25T19:59:12.485Z,83.50
2017-09-25T20:01:41.847Z,82.70
2017-09-25T20:04:11.030Z,82.70
2017-09-25T20:06:40.548Z,82.70
2017-09-25T20:09:10.097Z,82.50
2017-09-25T20:11:40.303Z,82.50
2017-09-25T20:17:15.042Z,82.50
2017-09-25T20:19:44.456Z,83.00
2017-09-25T20:22:15.393Z,83.30
2017-09-25T20:24:46.148Z,83.30
2017-09-25T20:27:16.789Z,83.50
2017-09-25T20:29:46.556Z,83.50
2017-09-25T20:32:16.525Z,83.50
2017-09-25T20:34:46.579Z,83.50
2017-09-25T20:37:16.954Z,83.50
2017-09-25T20:39:46.969Z,83.60
2017-09-25T20:45:23.895Z,84.30
2017-09-25T20:47:56.209Z,84.50
2017-09-25T20:50:26.716Z,84.50
2017-09-25T20:52:57.145Z,84.40
2017-09-25T20:55:27.573Z,84.90
2017-09-25T20:57:57.081Z,85.20
2017-09-25T21:00:27.443Z,85.40
2017-09-25T21:02:58.175Z,85.80
2017-09-25T21:05:28.735Z,86.30
2017-09-25T21:07:58.546Z,86.30
2017-09-25T21:10:28.545Z,86.10
2017-09-25T21:12:58.552Z,86.10
2017-09-25T21:15:29.114Z,85.90
2017-09-25T21:17:59.097Z,86.00
2017-09-25T21:20:29.697Z,86.60
2017-09-25T21:22:59.297Z,86.50
2017-09-25T21:25:29.135Z,86.00
2017-09-25T21:27:59.545Z,86.50
2017-09-25T21:30:28.598Z,86.50
2017-09-25T21:32:58.755Z,85.80
2017-09-25T21:35:28.267Z,85.60
2017-09-25T21:37:57.401Z,85.90
2017-09-25T21:40:26.433Z,86.30
2017-09-25T21:42:55.752Z,85.70
2017-09-25T21:45:24.422Z,85.70
2017-09-25T21:47:53.698Z,85.80
2017-09-25T21:50:24.538Z,86.10
2017-09-25T21:52:53.704Z,86.20
2017-09-25T21:55:22.778Z,86.40
2017-09-25T21:57:52.929Z,86.10
2017-09-25T22:00:23.616Z,86.30
2017-09-25T22:02:53.235Z,86.90
2017-09-25T22:05:23.110Z,86.90
2017-09-25T22:07:52.312Z,87.00
2017-09-25T22:10:21.720Z,87.10
2017-09-25T22:12:50.508Z,87.10
2017-09-25T22:15:19.399Z,87.60
2017-09-25T22:17:49.274Z,86.10
2017-09-25T22:20:18.649Z,86.10
2017-09-25T22:22:48.239Z,85.70
2017-09-25T22:25:19.960Z,85.90
2017-09-25T22:27:48.617Z,85.90
2017-09-25T22:30:17.244Z,86.10
2017-09-25T22:32:46.000Z,86.30
2017-09-25T22:35:14.717Z,86.50
2017-09-25T22:37:43.404Z,86.40
2017-09-25T22:40:12.088Z,86.60
2017-09-25T22:42:41.288Z,86.10
2017-09-25T22:45:10.178Z,86.20
2017-09-25T22:47:38.804Z,85.90
2017-09-25T22:50:08.750Z,86.30
2017-09-25T22:52:37.960Z,86.20
2017-09-25T22:55:08.810Z,87.70
2017-09-25T22:57:38.881Z,87.20
2017-09-25T23:00:09.007Z,87.20
2017-09-25T23:02:38.884Z,87.30
2017-09-25T23:08:19.753Z,86.80
2017-09-25T23:10:53.475Z,86.50
2017-09-25T23:13:22.452Z,86.40
2017-09-25T23:15:55.774Z,86.00
2017-09-25T23:18:28.745Z,86.50
2017-09-25T23:21:00.344Z,86.60
2017-09-25T23:23:35.752Z,86.60
2017-09-25T23:26:08.513Z,86.50
2017-09-25T23:28:38.878Z,86.90
2017-09-25T23:31:13.046Z,86.60
2017-09-25T23:33:48.767Z,87.00
2017-09-25T23:36:18.906Z,87.00
2017-09-25T23:38:52.258Z,88.30
2017-09-25T23:41:24.597Z,88.00
2017-09-25T23:43:59.497Z,88.40
2017-09-25T23:46:29.774Z,88.30
2017-09-25T23:48:59.033Z,88.50
2017-09-25T23:51:27.425Z,88.30
2017-09-25T23:53:55.809Z,88.60
2017-09-25T23:56:24.465Z,88.40
2017-09-25T23:58:52.840Z,88.20
